sensor_id;sensor_type;location;lat;lon;timestamp;pressure;altitude;pressure_sealevel;temperature;humidity
5380;BME280;2713;42.680;23.310;2023-05-22T00:02:20;94833.13;;;17.13;70.70
5380;BME280;2713;42.680;23.310;2023-05-22T00:04:49;94829.16;;;16.81;71.71
5380;BME280;2713;42.680;23.310;2023-05-22T00:07:16;94833.78;;;16.67;72.73
5380;BME280;2713;42.680;23.310;2023-05-22T00:09:44;94826.34;;;16.46;73.60
5380;BME280;2713;42.680;23.310;2023-05-22T00:12:11;94827.22;;;16.58;73.40
5380;BME280;2713;42.680;23.310;2023-05-22T00:14:38;94827.13;;;16.65;73.13
5380;BME280;2713;42.680;23.310;2023-05-22T00:17:04;94830.22;;;16.92;72.06
5380;BME280;2713;42.680;23.310;2023-05-22T00:19:31;94824.34;;;17.08;71.13
5380;BME280;2713;42.680;23.310;2023-05-22T00:21:59;94826.53;;;17.22;70.44
5380;BME280;2713;42.680;23.310;2023-05-22T00:24:26;94840.25;;;17.24;70.76
5380;BME280;2713;42.680;23.310;2023-05-22T00:26:54;94830.53;;;17.25;70.46
5380;BME280;2713;42.680;23.310;2023-05-22T00:29:21;94834.06;;;17.31;70.14
5380;BME280;2713;42.680;23.310;2023-05-22T00:31:47;94824.13;;;17.21;70.58
5380;BME280;2713;42.680;23.310;2023-05-22T00:34:14;94833.72;;;17.27;70.24
5380;BME280;2713;42.680;23.310;2023-05-22T00:36:42;94833.94;;;17.14;70.79
5380;BME280;2713;42.680;23.310;2023-05-22T00:39:09;94832.91;;;17.15;70.78
5380;BME280;2713;42.680;23.310;2023-05-22T00:41:36;94838.03;;;17.10;71.01
5380;BME280;2713;42.680;23.310;2023-05-22T00:44:04;94834.53;;;17.28;70.30
5380;BME280;2713;42.680;23.310;2023-05-22T00:46:32;94845.50;;;17.24;70.38
5380;BME280;2713;42.680;23.310;2023-05-22T00:48:59;94833.28;;;17.30;69.96
5380;BME280;2713;42.680;23.310;2023-05-22T00:51:26;94839.13;;;17.44;69.54
5380;BME280;2713;42.680;23.310;2023-05-22T00:53:53;94837.66;;;17.36;69.63
5380;BME280;2713;42.680;23.310;2023-05-22T00:56:21;94836.72;;;17.42;69.54
5380;BME280;2713;42.680;23.310;2023-05-22T00:58:48;94830.31;;;17.38;69.74
5380;BME280;2713;42.680;23.310;2023-05-22T01:01:16;94834.31;;;17.41;69.51
5380;BME280;2713;42.680;23.310;2023-05-22T01:03:44;94829.06;;;17.29;69.71
5380;BME280;2713;42.680;23.310;2023-05-22T01:06:11;94806.41;;;17.16;69.82
5380;BME280;2713;42.680;23.310;2023-05-22T01:08:39;94833.41;;;17.35;69.79
5380;BME280;2713;42.680;23.310;2023-05-22T01:11:09;94835.13;;;17.41;69.49
5380;BME280;2713;42.680;23.310;2023-05-22T01:13:43;94826.69;;;17.39;69.53
5380;BME280;2713;42.680;23.310;2023-05-22T01:16:19;94827.47;;;17.40;69.45
5380;BME280;2713;42.680;23.310;2023-05-22T01:18:56;94824.81;;;17.28;69.82
5380;BME280;2713;42.680;23.310;2023-05-22T01:21:34;94820.97;;;17.42;69.51
5380;BME280;2713;42.680;23.310;2023-05-22T01:24:23;94820.97;;;17.42;69.68
5380;BME280;2713;42.680;23.310;2023-05-22T01:27:19;94817.44;;;17.48;69.36
5380;BME280;2713;42.680;23.310;2023-05-22T01:30:02;94817.13;;;17.56;69.07
5380;BME280;2713;42.680;23.310;2023-05-22T01:32:35;94816.22;;;17.62;68.60
5380;BME280;2713;42.680;23.310;2023-05-22T01:35:06;94819.84;;;17.61;68.67
5380;BME280;2713;42.680;23.310;2023-05-22T01:37:36;94814.59;;;17.61;68.88
5380;BME280;2713;42.680;23.310;2023-05-22T01:40:05;94814.84;;;17.60;68.96
5380;BME280;2713;42.680;23.310;2023-05-22T01:42:33;94811.03;;;17.44;69.74
5380;BME280;2713;42.680;23.310;2023-05-22T01:45:00;94812.63;;;17.45;69.81
5380;BME280;2713;42.680;23.310;2023-05-22T01:47:28;94818.44;;;17.36;70.35
5380;BME280;2713;42.680;23.310;2023-05-22T01:49:57;94816.16;;;17.39;70.24
5380;BME280;2713;42.680;23.310;2023-05-22T01:52:28;94818.91;;;17.44;70.11
5380;BME280;2713;42.680;23.310;2023-05-22T01:55:03;94815.94;;;17.29;70.51
5380;BME280;2713;42.680;23.310;2023-05-22T01:57:34;94817.00;;;17.10;71.41
5380;BME280;2713;42.680;23.310;2023-05-22T02:00:06;94814.50;;;17.03;71.75
5380;BME280;2713;42.680;23.310;2023-05-22T02:02:43;94816.22;;;17.09;71.77
5380;BME280;2713;42.680;23.310;2023-05-22T02:05:15;94815.91;;;17.17;71.38
5380;BME280;2713;42.680;23.310;2023-05-22T02:07:44;94819.44;;;17.11;71.51
5380;BME280;2713;42.680;23.310;2023-05-22T02:10:15;94804.38;;;17.18;71.50
5380;BME280;2713;42.680;23.310;2023-05-22T02:12:43;94813.94;;;17.01;71.90
5380;BME280;2713;42.680;23.310;2023-05-22T02:15:10;94815.84;;;17.06;71.94
5380;BME280;2713;42.680;23.310;2023-05-22T02:17:37;94823.72;;;16.94;72.21
5380;BME280;2713;42.680;23.310;2023-05-22T02:20:09;94815.66;;;17.07;71.92
5380;BME280;2713;42.680;23.310;2023-05-22T02:22:43;94816.06;;;16.93;72.52
5380;BME280;2713;42.680;23.310;2023-05-22T02:25:10;94817.34;;;16.72;72.86
5380;BME280;2713;42.680;23.310;2023-05-22T02:27:40;94809.84;;;16.76;72.79
5380;BME280;2713;42.680;23.310;2023-05-22T02:30:08;94798.19;;;16.71;72.66
5380;BME280;2713;42.680;23.310;2023-05-22T02:32:37;94810.91;;;16.86;72.73
5380;BME280;2713;42.680;23.310;2023-05-22T02:35:05;94805.13;;;16.66;73.08
5380;BME280;2713;42.680;23.310;2023-05-22T02:37:32;94816.28;;;16.61;73.44
5380;BME280;2713;42.680;23.310;2023-05-22T02:40:01;94808.13;;;16.69;72.97
5380;BME280;2713;42.680;23.310;2023-05-22T02:42:31;94820.75;;;16.61;73.22
5380;BME280;2713;42.680;23.310;2023-05-22T02:45:00;94812.53;;;16.57;73.43
5380;BME280;2713;42.680;23.310;2023-05-22T02:47:27;94794.38;;;16.56;73.54
5380;BME280;2713;42.680;23.310;2023-05-22T02:49:55;94816.53;;;16.60;73.28
5380;BME280;2713;42.680;23.310;2023-05-22T02:52:32;94807.41;;;16.44;73.93
5380;BME280;2713;42.680;23.310;2023-05-22T02:55:03;94809.28;;;16.37;74.19
5380;BME280;2713;42.680;23.310;2023-05-22T02:57:31;94813.25;;;16.28;74.50
5380;BME280;2713;42.680;23.310;2023-05-22T02:59:58;94809.75;;;16.34;74.32
5380;BME280;2713;42.680;23.310;2023-05-22T03:02:26;94817.31;;;16.42;73.91
5380;BME280;2713;42.680;23.310;2023-05-22T03:04:54;94803.75;;;16.45;74.00
5380;BME280;2713;42.680;23.310;2023-05-22T03:07:23;94806.19;;;16.47;73.61
5380;BME280;2713;42.680;23.310;2023-05-22T03:09:50;94812.88;;;16.43;73.91
5380;BME280;2713;42.680;23.310;2023-05-22T03:12:19;94805.66;;;16.38;74.26
5380;BME280;2713;42.680;23.310;2023-05-22T03:14:46;94814.94;;;16.22;74.66
5380;BME280;2713;42.680;23.310;2023-05-22T03:17:13;94801.97;;;16.28;73.95
5380;BME280;2713;42.680;23.310;2023-05-22T03:19:40;94815.63;;;16.48;74.13
5380;BME280;2713;42.680;23.310;2023-05-22T03:22:07;94808.06;;;16.40;73.76
5380;BME280;2713;42.680;23.310;2023-05-22T03:24:34;94815.13;;;16.39;74.03
5380;BME280;2713;42.680;23.310;2023-05-22T03:27:01;94799.94;;;16.30;74.58
5380;BME280;2713;42.680;23.310;2023-05-22T03:29:37;94811.72;;;16.20;74.64
5380;BME280;2713;42.680;23.310;2023-05-22T03:32:05;94813.69;;;16.25;74.87
5380;BME280;2713;42.680;23.310;2023-05-22T03:34:32;94808.91;;;16.22;74.63
5380;BME280;2713;42.680;23.310;2023-05-22T03:37:00;94809.63;;;16.11;74.72
5380;BME280;2713;42.680;23.310;2023-05-22T03:39:27;94810.63;;;16.10;74.96
5380;BME280;2713;42.680;23.310;2023-05-22T03:41:59;94820.09;;;16.11;74.98
5380;BME280;2713;42.680;23.310;2023-05-22T03:44:27;94811.88;;;16.26;74.29
5380;BME280;2713;42.680;23.310;2023-05-22T03:46:55;94816.88;;;16.27;74.02
5380;BME280;2713;42.680;23.310;2023-05-22T03:49:22;94813.41;;;16.15;74.31
5380;BME280;2713;42.680;23.310;2023-05-22T03:51:49;94813.97;;;16.35;73.96
5380;BME280;2713;42.680;23.310;2023-05-22T03:54:16;94813.97;;;16.35;74.11
5380;BME280;2713;42.680;23.310;2023-05-22T03:56:42;94815.59;;;16.36;74.16
5380;BME280;2713;42.680;23.310;2023-05-22T03:59:09;94820.03;;;16.17;74.81
5380;BME280;2713;42.680;23.310;2023-05-22T04:01:37;94823.63;;;16.23;75.12
5380;BME280;2713;42.680;23.310;2023-05-22T04:04:05;94820.91;;;16.30;74.91
5380;BME280;2713;42.680;23.310;2023-05-22T04:06:35;94824.75;;;16.45;74.23
5380;BME280;2713;42.680;23.310;2023-05-22T04:09:08;94824.22;;;16.55;74.01
5380;BME280;2713;42.680;23.310;2023-05-22T04:11:35;94826.81;;;16.43;74.19
5380;BME280;2713;42.680;23.310;2023-05-22T04:14:04;94819.66;;;16.50;74.07
5380;BME280;2713;42.680;23.310;2023-05-22T04:16:30;94825.75;;;16.44;74.45
5380;BME280;2713;42.680;23.310;2023-05-22T04:18:57;94819.34;;;16.58;73.88
5380;BME280;2713;42.680;23.310;2023-05-22T04:21:27;94823.81;;;16.58;73.82
5380;BME280;2713;42.680;23.310;2023-05-22T04:23:54;94818.91;;;16.61;73.95
5380;BME280;2713;42.680;23.310;2023-05-22T04:26:22;94825.13;;;16.79;73.19
5380;BME280;2713;42.680;23.310;2023-05-22T04:28:50;94817.69;;;16.64;73.17
5380;BME280;2713;42.680;23.310;2023-05-22T04:31:17;94824.00;;;16.75;73.60
5380;BME280;2713;42.680;23.310;2023-05-22T04:33:48;94833.41;;;16.94;73.00
5380;BME280;2713;42.680;23.310;2023-05-22T04:36:15;94836.25;;;16.92;72.71
5380;BME280;2713;42.680;23.310;2023-05-22T04:38:50;94807.03;;;16.89;72.42
5380;BME280;2713;42.680;23.310;2023-05-22T04:41:17;94836.91;;;17.17;71.53
5380;BME280;2713;42.680;23.310;2023-05-22T04:43:43;94839.69;;;17.34;71.57
5380;BME280;2713;42.680;23.310;2023-05-22T04:46:12;94837.56;;;17.78;69.91
5380;BME280;2713;42.680;23.310;2023-05-22T04:48:39;94837.63;;;18.29;67.76
5380;BME280;2713;42.680;23.310;2023-05-22T04:51:07;94838.22;;;18.83;65.41
5380;BME280;2713;42.680;23.310;2023-05-22T04:53:35;94823.09;;;19.06;64.52
5380;BME280;2713;42.680;23.310;2023-05-22T04:56:05;94833.09;;;19.21;63.59
5380;BME280;2713;42.680;23.310;2023-05-22T04:58:32;94835.03;;;19.42;62.72
5380;BME280;2713;42.680;23.310;2023-05-22T05:01:02;94836.75;;;19.48;61.91
5380;BME280;2713;42.680;23.310;2023-05-22T05:03:29;94839.09;;;19.33;62.43
5380;BME280;2713;42.680;23.310;2023-05-22T05:05:57;94842.94;;;19.42;62.32
5380;BME280;2713;42.680;23.310;2023-05-22T05:08:25;94845.34;;;19.77;61.46
5380;BME280;2713;42.680;23.310;2023-05-22T05:10:52;94845.19;;;19.84;61.25
5380;BME280;2713;42.680;23.310;2023-05-22T05:13:20;94850.56;;;20.10;60.62
5380;BME280;2713;42.680;23.310;2023-05-22T05:15:47;94845.56;;;20.47;59.22
5380;BME280;2713;42.680;23.310;2023-05-22T05:18:14;94849.66;;;20.82;58.12
5380;BME280;2713;42.680;23.310;2023-05-22T05:20:41;94853.63;;;21.06;57.24
5380;BME280;2713;42.680;23.310;2023-05-22T05:23:08;94852.81;;;21.05;57.70
5380;BME280;2713;42.680;23.310;2023-05-22T05:25:35;94847.34;;;21.39;60.57
5380;BME280;2713;42.680;23.310;2023-05-22T05:28:04;94846.09;;;21.46;56.24
5380;BME280;2713;42.680;23.310;2023-05-22T05:30:37;94846.34;;;21.77;55.41
5380;BME280;2713;42.680;23.310;2023-05-22T05:33:22;94835.25;;;21.48;55.76
5380;BME280;2713;42.680;23.310;2023-05-22T05:36:15;94851.41;;;21.83;55.08
5380;BME280;2713;42.680;23.310;2023-05-22T05:38:44;94853.66;;;21.96;53.54
5380;BME280;2713;42.680;23.310;2023-05-22T05:41:12;94855.81;;;21.67;54.58
5380;BME280;2713;42.680;23.310;2023-05-22T05:43:40;94847.44;;;21.86;54.63
5380;BME280;2713;42.680;23.310;2023-05-22T05:46:09;94845.81;;;22.16;53.52
5380;BME280;2713;42.680;23.310;2023-05-22T05:48:36;94848.63;;;22.42;52.86
5380;BME280;2713;42.680;23.310;2023-05-22T05:51:04;94844.94;;;22.43;52.20
5380;BME280;2713;42.680;23.310;2023-05-22T05:53:36;94843.63;;;22.50;52.35
5380;BME280;2713;42.680;23.310;2023-05-22T05:56:06;94851.09;;;22.58;52.46
5380;BME280;2713;42.680;23.310;2023-05-22T05:58:34;94848.09;;;22.40;51.89
5380;BME280;2713;42.680;23.310;2023-05-22T06:01:21;94855.84;;;22.56;51.04
5380;BME280;2713;42.680;23.310;2023-05-22T06:03:49;94854.81;;;22.62;50.64
5380;BME280;2713;42.680;23.310;2023-05-22T06:06:23;94849.09;;;22.86;50.20
5380;BME280;2713;42.680;23.310;2023-05-22T06:09:09;94854.72;;;23.04;49.42
5380;BME280;2713;42.680;23.310;2023-05-22T06:11:54;94848.56;;;22.84;49.34
5380;BME280;2713;42.680;23.310;2023-05-22T06:14:22;94849.38;;;22.84;48.56
5380;BME280;2713;42.680;23.310;2023-05-22T06:16:50;94842.19;;;22.80;49.36
5380;BME280;2713;42.680;23.310;2023-05-22T06:19:17;94847.84;;;22.46;49.73
5380;BME280;2713;42.680;23.310;2023-05-22T06:21:44;94844.38;;;21.99;50.20
5380;BME280;2713;42.680;23.310;2023-05-22T06:24:11;94849.78;;;21.77;50.84
5380;BME280;2713;42.680;23.310;2023-05-22T06:26:38;94840.84;;;21.51;51.38
5380;BME280;2713;42.680;23.310;2023-05-22T06:29:05;94843.66;;;21.40;51.96
5380;BME280;2713;42.680;23.310;2023-05-22T06:31:34;94844.72;;;21.39;51.46
5380;BME280;2713;42.680;23.310;2023-05-22T06:34:04;94837.75;;;21.59;50.60
5380;BME280;2713;42.680;23.310;2023-05-22T06:36:31;94853.94;;;21.68;51.91
5380;BME280;2713;42.680;23.310;2023-05-22T06:38:59;94844.72;;;21.39;48.99
5380;BME280;2713;42.680;23.310;2023-05-22T06:41:45;94844.75;;;21.17;50.95
5380;BME280;2713;42.680;23.310;2023-05-22T06:44:13;94844.19;;;21.73;50.19
5380;BME280;2713;42.680;23.310;2023-05-22T06:46:40;94846.13;;;22.20;48.91
5380;BME280;2713;42.680;23.310;2023-05-22T06:49:14;94841.44;;;22.94;46.98
5380;BME280;2713;42.680;23.310;2023-05-22T06:51:43;94841.75;;;23.23;45.56
5380;BME280;2713;42.680;23.310;2023-05-22T06:54:12;94835.00;;;22.75;45.33
5380;BME280;2713;42.680;23.310;2023-05-22T06:56:42;94835.66;;;23.28;44.97
5380;BME280;2713;42.680;23.310;2023-05-22T06:59:14;94837.06;;;23.45;44.36
5380;BME280;2713;42.680;23.310;2023-05-22T07:02:06;94836.53;;;23.58;43.63
5380;BME280;2713;42.680;23.310;2023-05-22T07:04:58;94843.84;;;23.01;44.21
5380;BME280;2713;42.680;23.310;2023-05-22T07:07:36;94813.53;;;22.19;46.24
5380;BME280;2713;42.680;23.310;2023-05-22T07:10:10;94840.47;;;22.53;46.64
5380;BME280;2713;42.680;23.310;2023-05-22T07:12:37;94838.06;;;22.57;47.22
5380;BME280;2713;42.680;23.310;2023-05-22T07:15:05;94837.88;;;22.63;46.86
5380;BME280;2713;42.680;23.310;2023-05-22T07:17:36;94831.91;;;22.36;47.08
5380;BME280;2713;42.680;23.310;2023-05-22T07:20:08;94829.13;;;22.16;47.31
5380;BME280;2713;42.680;23.310;2023-05-22T07:22:37;94829.06;;;22.01;48.31
5380;BME280;2713;42.680;23.310;2023-05-22T07:25:05;94838.09;;;22.05;47.49
5380;BME280;2713;42.680;23.310;2023-05-22T07:27:33;94839.63;;;22.43;46.90
5380;BME280;2713;42.680;23.310;2023-05-22T07:30:01;94835.63;;;23.02;45.54
5380;BME280;2713;42.680;23.310;2023-05-22T07:32:29;94834.88;;;23.27;44.93
5380;BME280;2713;42.680;23.310;2023-05-22T07:35:00;94831.75;;;23.45;44.32
5380;BME280;2713;42.680;23.310;2023-05-22T07:37:28;94830.94;;;23.70;43.72
5380;BME280;2713;42.680;23.310;2023-05-22T07:39:56;94829.09;;;23.76;43.99
5380;BME280;2713;42.680;23.310;2023-05-22T07:42:23;94826.97;;;23.83;43.29
5380;BME280;2713;42.680;23.310;2023-05-22T07:44:53;94830.16;;;23.59;43.72
5380;BME280;2713;42.680;23.310;2023-05-22T07:47:20;94825.63;;;23.60;42.98
5380;BME280;2713;42.680;23.310;2023-05-22T07:49:48;94826.13;;;23.27;43.26
5380;BME280;2713;42.680;23.310;2023-05-22T07:52:15;94818.47;;;23.65;43.40
5380;BME280;2713;42.680;23.310;2023-05-22T07:54:43;94820.59;;;23.63;44.21
5380;BME280;2713;42.680;23.310;2023-05-22T07:57:11;94827.72;;;23.38;43.61
5380;BME280;2713;42.680;23.310;2023-05-22T07:59:40;94823.78;;;23.65;43.43
5380;BME280;2713;42.680;23.310;2023-05-22T08:02:08;94830.63;;;23.26;43.80
5380;BME280;2713;42.680;23.310;2023-05-22T08:04:35;94823.19;;;23.33;43.70
5380;BME280;2713;42.680;23.310;2023-05-22T08:07:02;94823.47;;;24.02;42.81
5380;BME280;2713;42.680;23.310;2023-05-22T08:09:29;94817.88;;;24.19;41.35
5380;BME280;2713;42.680;23.310;2023-05-22T08:11:57;94806.59;;;24.52;40.37
5380;BME280;2713;42.680;23.310;2023-05-22T08:14:23;94815.44;;;25.02;39.82
5380;BME280;2713;42.680;23.310;2023-05-22T08:16:50;94822.38;;;24.98;39.74
5380;BME280;2713;42.680;23.310;2023-05-22T08:19:17;94816.56;;;24.91;39.54
5380;BME280;2713;42.680;23.310;2023-05-22T08:21:44;94818.97;;;23.93;40.04
5380;BME280;2713;42.680;23.310;2023-05-22T08:24:11;94818.44;;;23.91;40.55
5380;BME280;2713;42.680;23.310;2023-05-22T08:26:37;94815.94;;;24.55;38.88
5380;BME280;2713;42.680;23.310;2023-05-22T08:29:07;94809.59;;;24.41;38.26
5380;BME280;2713;42.680;23.310;2023-05-22T08:31:33;94821.41;;;24.79;38.43
5380;BME280;2713;42.680;23.310;2023-05-22T08:34:00;94819.63;;;24.54;40.26
5380;BME280;2713;42.680;23.310;2023-05-22T08:36:29;94813.72;;;25.21;38.22
5380;BME280;2713;42.680;23.310;2023-05-22T08:38:58;94814.22;;;24.74;39.28
5380;BME280;2713;42.680;23.310;2023-05-22T08:41:25;94809.34;;;25.01;37.90
5380;BME280;2713;42.680;23.310;2023-05-22T08:43:53;94805.66;;;25.36;37.01
5380;BME280;2713;42.680;23.310;2023-05-22T08:46:22;94809.16;;;25.65;36.07
5380;BME280;2713;42.680;23.310;2023-05-22T08:48:51;94811.13;;;25.50;35.56
5380;BME280;2713;42.680;23.310;2023-05-22T08:51:20;94814.03;;;24.65;35.39
5380;BME280;2713;42.680;23.310;2023-05-22T08:53:50;94809.13;;;24.03;38.38
5380;BME280;2713;42.680;23.310;2023-05-22T08:56:17;94797.47;;;24.73;37.22
5380;BME280;2713;42.680;23.310;2023-05-22T08:58:45;94811.13;;;25.50;36.58
5380;BME280;2713;42.680;23.310;2023-05-22T09:01:12;94813.41;;;24.84;37.78
5380;BME280;2713;42.680;23.310;2023-05-22T09:03:41;94812.97;;;25.20;37.35
5380;BME280;2713;42.680;23.310;2023-05-22T09:06:08;94796.47;;;25.18;35.73
5380;BME280;2713;42.680;23.310;2023-05-22T09:08:36;94806.53;;;24.72;34.74
5380;BME280;2713;42.680;23.310;2023-05-22T09:11:03;94803.91;;;24.67;35.55
5380;BME280;2713;42.680;23.310;2023-05-22T09:13:34;94803.06;;;23.83;35.02
5380;BME280;2713;42.680;23.310;2023-05-22T09:16:07;94803.09;;;23.52;36.94
5380;BME280;2713;42.680;23.310;2023-05-22T09:18:42;94803.06;;;23.78;36.27
5380;BME280;2713;42.680;23.310;2023-05-22T09:21:09;94801.75;;;23.65;35.48
5380;BME280;2713;42.680;23.310;2023-05-22T09:23:37;94801.38;;;22.81;38.01
5380;BME280;2713;42.680;23.310;2023-05-22T09:26:04;94808.81;;;22.89;37.72
5380;BME280;2713;42.680;23.310;2023-05-22T09:28:31;94801.44;;;23.11;37.59
5380;BME280;2713;42.680;23.310;2023-05-22T09:30:59;94794.00;;;23.23;36.96
5380;BME280;2713;42.680;23.310;2023-05-22T09:33:26;94802.50;;;23.40;37.93
5380;BME280;2713;42.680;23.310;2023-05-22T09:35:54;94799.28;;;23.03;38.30
5380;BME280;2713;42.680;23.310;2023-05-22T09:38:25;94791.38;;;23.23;38.13
5380;BME280;2713;42.680;23.310;2023-05-22T09:40:53;94798.50;;;23.12;39.14
5380;BME280;2713;42.680;23.310;2023-05-22T09:43:21;94798.78;;;23.21;39.77
5380;BME280;2713;42.680;23.310;2023-05-22T09:45:55;94797.47;;;23.23;39.88
5380;BME280;2713;42.680;23.310;2023-05-22T09:48:22;94800.06;;;22.26;40.81
5380;BME280;2713;42.680;23.310;2023-05-22T09:50:49;94800.63;;;22.33;42.40
5380;BME280;2713;42.680;23.310;2023-05-22T09:53:25;94796.13;;;22.34;42.88
5380;BME280;2713;42.680;23.310;2023-05-22T09:55:54;94804.84;;;22.24;43.00
5380;BME280;2713;42.680;23.310;2023-05-22T09:58:24;94778.06;;;22.15;43.43
5380;BME280;2713;42.680;23.310;2023-05-22T10:00:58;94805.72;;;22.40;43.96
5380;BME280;2713;42.680;23.310;2023-05-22T10:03:30;94796.41;;;22.32;44.88
5380;BME280;2713;42.680;23.310;2023-05-22T10:05:57;94748.06;;;22.00;45.12
5380;BME280;2713;42.680;23.310;2023-05-22T10:08:28;94746.78;;;22.12;45.88
5380;BME280;2713;42.680;23.310;2023-05-22T10:10:59;94802.81;;;22.46;50.09
5380;BME280;2713;42.680;23.310;2023-05-22T10:13:27;94805.44;;;22.36;47.44
5380;BME280;2713;42.680;23.310;2023-05-22T10:16:05;94771.97;;;22.15;49.09
5380;BME280;2713;42.680;23.310;2023-05-22T10:18:37;94766.19;;;22.28;50.68
5380;BME280;2713;42.680;23.310;2023-05-22T10:21:05;94773.81;;;22.14;46.29
5380;BME280;2713;42.680;23.310;2023-05-22T10:23:34;94812.84;;;22.39;46.53
5380;BME280;2713;42.680;23.310;2023-05-22T10:26:01;94757.56;;;21.96;47.40
5380;BME280;2713;42.680;23.310;2023-05-22T10:28:34;94795.13;;;21.93;47.18
5380;BME280;2713;42.680;23.310;2023-05-22T10:31:10;94809.50;;;22.02;47.09
5380;BME280;2713;42.680;23.310;2023-05-22T10:34:06;94819.28;;;22.06;46.87
5380;BME280;2713;42.680;23.310;2023-05-22T10:36:46;94826.78;;;21.83;49.79
5380;BME280;2713;42.680;23.310;2023-05-22T10:39:39;94830.41;;;21.71;47.60
5380;BME280;2713;42.680;23.310;2023-05-22T10:42:11;94849.28;;;21.48;48.50
5380;BME280;2713;42.680;23.310;2023-05-22T10:44:39;94854.41;;;20.36;55.61
5380;BME280;2713;42.680;23.310;2023-05-22T10:47:07;94856.63;;;19.72;63.28
5380;BME280;2713;42.680;23.310;2023-05-22T10:49:42;94827.44;;;19.96;62.47
5380;BME280;2713;42.680;23.310;2023-05-22T10:52:10;94840.56;;;20.29;67.35
5380;BME280;2713;42.680;23.310;2023-05-22T10:54:41;94827.81;;;20.04;64.17
5380;BME280;2713;42.680;23.310;2023-05-22T10:57:09;94827.53;;;20.22;64.15
5380;BME280;2713;42.680;23.310;2023-05-22T10:59:37;94828.25;;;20.56;65.24
5380;BME280;2713;42.680;23.310;2023-05-22T11:02:04;94824.81;;;20.83;65.73
5380;BME280;2713;42.680;23.310;2023-05-22T11:04:36;94797.56;;;21.04;65.42
5380;BME280;2713;42.680;23.310;2023-05-22T11:07:05;94818.34;;;21.49;66.78
5380;BME280;2713;42.680;23.310;2023-05-22T11:09:38;94800.72;;;21.59;63.02
5380;BME280;2713;42.680;23.310;2023-05-22T11:12:23;94808.19;;;22.04;63.48
5380;BME280;2713;42.680;23.310;2023-05-22T11:14:52;94803.22;;;22.23;63.83
5380;BME280;2713;42.680;23.310;2023-05-22T11:17:21;94803.50;;;22.21;67.16
5380;BME280;2713;42.680;23.310;2023-05-22T11:20:02;94799.03;;;22.27;65.66
5380;BME280;2713;42.680;23.310;2023-05-22T11:22:31;94796.41;;;22.32;66.26
5380;BME280;2713;42.680;23.310;2023-05-22T11:24:58;94795.75;;;22.10;65.88
5380;BME280;2713;42.680;23.310;2023-05-22T11:27:27;94802.59;;;22.01;67.00
5380;BME280;2713;42.680;23.310;2023-05-22T11:29:55;94816.84;;;21.26;64.79
5380;BME280;2713;42.680;23.310;2023-05-22T11:32:25;94838.75;;;20.51;67.23
5380;BME280;2713;42.680;23.310;2023-05-22T11:34:56;94851.75;;;19.48;65.85
5380;BME280;2713;42.680;23.310;2023-05-22T11:37:23;94855.97;;;18.76;73.83
5380;BME280;2713;42.680;23.310;2023-05-22T11:39:54;94866.03;;;18.79;73.95
5380;BME280;2713;42.680;23.310;2023-05-22T11:42:21;94860.47;;;18.63;73.52
5380;BME280;2713;42.680;23.310;2023-05-22T11:44:52;94866.09;;;18.44;72.89
5380;BME280;2713;42.680;23.310;2023-05-22T11:47:18;94868.25;;;18.47;71.47
5380;BME280;2713;42.680;23.310;2023-05-22T11:49:46;94877.09;;;18.41;71.96
5380;BME280;2713;42.680;23.310;2023-05-22T11:52:14;94872.09;;;18.16;72.69
5380;BME280;2713;42.680;23.310;2023-05-22T11:54:44;94873.06;;;18.73;71.00
5380;BME280;2713;42.680;23.310;2023-05-22T11:57:12;94866.78;;;19.19;70.18
5380;BME280;2713;42.680;23.310;2023-05-22T11:59:39;94866.56;;;19.37;68.99
5380;BME280;2713;42.680;23.310;2023-05-22T12:02:08;94869.53;;;19.24;67.28
5380;BME280;2713;42.680;23.310;2023-05-22T12:04:36;94865.09;;;19.41;68.18
5380;BME280;2713;42.680;23.310;2023-05-22T12:07:04;94869.88;;;19.16;66.56
5380;BME280;2713;42.680;23.310;2023-05-22T12:09:31;94872.44;;;19.11;67.62
5380;BME280;2713;42.680;23.310;2023-05-22T12:11:58;94867.91;;;18.95;66.61
5380;BME280;2713;42.680;23.310;2023-05-22T12:14:25;94872.25;;;19.01;67.79
5380;BME280;2713;42.680;23.310;2023-05-22T12:16:52;94859.28;;;18.83;69.39
5380;BME280;2713;42.680;23.310;2023-05-22T12:19:21;94867.19;;;19.11;69.17
5380;BME280;2713;42.680;23.310;2023-05-22T12:21:48;94862.09;;;18.93;67.08
5380;BME280;2713;42.680;23.310;2023-05-22T12:24:16;94848.59;;;18.89;68.86
5380;BME280;2713;42.680;23.310;2023-05-22T12:26:50;94858.28;;;19.00;68.60
5380;BME280;2713;42.680;23.310;2023-05-22T12:29:17;94854.56;;;19.13;67.15
5380;BME280;2713;42.680;23.310;2023-05-22T12:31:44;94841.25;;;19.36;67.20
5380;BME280;2713;42.680;23.310;2023-05-22T12:34:11;94842.47;;;19.45;71.20
5380;BME280;2713;42.680;23.310;2023-05-22T12:36:42;94835.50;;;19.39;68.52
5380;BME280;2713;42.680;23.310;2023-05-22T12:39:10;94835.75;;;19.38;69.35
5380;BME280;2713;42.680;23.310;2023-05-22T12:41:37;94835.03;;;19.59;71.64
5380;BME280;2713;42.680;23.310;2023-05-22T12:44:04;94836.75;;;19.48;71.26
5380;BME280;2713;42.680;23.310;2023-05-22T12:46:31;94839.84;;;19.45;67.89
5380;BME280;2713;42.680;23.310;2023-05-22T12:49:01;94844.56;;;19.60;65.01
5380;BME280;2713;42.680;23.310;2023-05-22T12:51:30;94844.41;;;19.50;68.81
5380;BME280;2713;42.680;23.310;2023-05-22T12:53:59;94839.63;;;19.35;65.40
5380;BME280;2713;42.680;23.310;2023-05-22T12:56:28;94841.41;;;19.30;69.45
5380;BME280;2713;42.680;23.310;2023-05-22T12:58:55;94838.81;;;19.46;71.42
5380;BME280;2713;42.680;23.310;2023-05-22T13:01:22;94844.22;;;19.56;72.35
5380;BME280;2713;42.680;23.310;2023-05-22T13:03:50;94849.59;;;19.61;69.80
5380;BME280;2713;42.680;23.310;2023-05-22T13:06:17;94852.28;;;19.83;68.11
5380;BME280;2713;42.680;23.310;2023-05-22T13:08:45;94839.56;;;19.97;67.24
5380;BME280;2713;42.680;23.310;2023-05-22T13:11:16;94825.06;;;20.16;67.89
5380;BME280;2713;42.680;23.310;2023-05-22T13:13:44;94831.63;;;20.13;66.62
5380;BME280;2713;42.680;23.310;2023-05-22T13:16:11;94824.25;;;20.32;67.06
5380;BME280;2713;42.680;23.310;2023-05-22T13:18:38;94817.63;;;20.30;66.33
5380;BME280;2713;42.680;23.310;2023-05-22T13:21:04;94818.47;;;20.35;65.37
5380;BME280;2713;42.680;23.310;2023-05-22T13:23:31;94815.09;;;20.40;67.07